Nearby Nevada METAR Reports

Sorted by Distance from Carson Valley - Minden, Nevada

 

KMEV - Minden, Nevada, USA
Distance from station: SSW 3mi, 5km
Updated: Fri, 19-Apr-2024 5:35am MDT
Clear
Clear
 Wind from calm
Wind: Calm
Temperature: 39°F , 4°C
Dew Point: 34°F , 1°C
Humidity: 81%
Barometer: 30.02 inHg , 1016.6 hPa
Clouds: Clear
Visibility: 10 miles , 16 km
2024/04/19 11:35 KMEV 191135Z AUTO 00000KT 10SM CLR 04/01 A3002 RMK AO2
KCXP - Carson City, Nevada, USA
Distance from station: N 10mi, 16km
Updated: Fri, 19-Apr-2024 5:35am MDT
Clear
Clear
 Wind from calm
Wind: Calm
Temperature: 45°F , 7°C
Dew Point: 34°F , 1°C
Humidity: 66%
Barometer: 30.03 inHg , 1016.9 hPa
Clouds: Clear
Visibility: 10 miles , 16 km
2024/04/19 11:35 KCXP 191135Z AUTO 00000KT 10SM CLR 07/01 A3003 RMK AO2
 
KTVL - South Lake Tahoe, California, USA
Distance from station: WSW 18mi, 29km
Updated: Fri, 19-Apr-2024 4:53am MDT
Clear
Clear
 Wind from calm
Wind: Calm
Temperature: 34°F , 1°C
Dew Point: 30°F , -1°C
Humidity: 87%
Barometer: 30.07 inHg , 1018.3 hPa
Clouds: Clear
Visibility: 10 miles , 16 km
2024/04/19 10:53 KTVL 191053Z AUTO 00000KT 10SM CLR 01/M01 A3007 RMK AO2 SLP151 T00111011
KTRK - Truckee Tahoe, California, USA
Distance from station: NW 29mi, 46km
Updated: Fri, 19-Apr-2024 5:35am MDT
Clear
Clear
 Wind from calm
Wind: Calm
Temperature: 32°F , 0°C
Dew Point: 32°F , 0°C
Humidity: 100%
Barometer: 30.08 inHg , 1018.6 hPa
Clouds: Clear
Visibility: 10 miles , 16 km
2024/04/19 11:35 KTRK 191135Z AUTO 00000KT 10SM CLR 00/00 A3008 RMK AO2
 
KRNO - Reno, Nevada, USA
Distance from station: N 32mi, 51km
Updated: Fri, 19-Apr-2024 4:55am MDT
Clear
Clear
 Wind from W
Wind: W 6 mph , 9 km/h
Temperature: 52°F , 11°C
Dew Point: 36°F , 2°C
Humidity: 54%
Barometer: 30.01 inHg , 1016.3 hPa
Clouds: Clear
Visibility: 10 miles , 16 km
2024/04/19 10:55 KRNO 191055Z 28005KT 10SM CLR 11/02 A3001 RMK AO2 SLP127 T01110017
KRTS - Reno/Stead, Nevada, USA
Distance from station: NNW 44mi, 71km
Updated: Fri, 19-Apr-2024 1:35am MDT
NOT Current
Clear
Clear
 Wind from NNW
Wind: NNW 3 mph , 6 km/h
Temperature: 46°F , 8°C
Dew Point: 39°F , 4°C
Humidity: 76%
Barometer: 30.05 inHg , 1017.6 hPa
Clouds: Clear
Visibility: 10 miles , 16 km
2024/04/19 07:35 KRTS 190735Z AUTO 33003KT 10SM CLR 08/04 A3005 RMK AO2
 
KBAN - Bridgeport(Mcmwt, California, USA
Distance from station: SSE 49mi, 79km
Updated: Fri, 19-Apr-2024 4:52am MDT
Clear
Clear
 
Temperature: 36°F , 2°C
Dew Point: 27°F , -3°C
Humidity: 70%
Barometer: 30.06 inHg , 1017.9 hPa
Clouds: Clear
Visibility: 10 miles , 16 km
2024/04/19 10:52 KBAN 191052Z AUTO 10SM CLR 02/M03 A3006 RMK AO2 SLP136 T00171033 PNO $
KBLU - Emigrant Gap, California, USA
Distance from station: WNW 55mi, 89km
Updated: Fri, 19-Apr-2024 4:52am MDT
Clear
Clear
 Wind from calm
Wind: Calm
Temperature: 50°F , 10°C
Dew Point: 41°F , 5°C
Humidity: 71%
Barometer: 30.04 inHg , 1017.3 hPa
Clouds: Clear
Visibility: 10 miles , 16 km
2024/04/19 10:52 KBLU 191052Z AUTO 00000KT 10SM CLR 10/05 A3004 RMK AO2 SLP119 T01000050
 
KPVF - Placerville, California, USA
Distance from station: WSW 60mi, 96km
Updated: Fri, 19-Apr-2024 5:35am MDT
Clear
Clear
 Wind from E
Wind: E 7 mph , 11 km/h
Temperature: 57°F , 14°C
Dew Point: 45°F , 7°C
Humidity: 63%
Barometer: 29.96 inHg , 1014.6 hPa
Clouds: Clear
Visibility: 10 miles , 16 km
2024/04/19 11:35 KPVF 191135Z AUTO 08006KT 10SM CLR 14/07 A2996 RMK AO1
KNFL - Fallon Nas, Nevada, USA
Distance from station: ENE 61mi, 97km
Updated: Fri, 19-Apr-2024 4:56am MDT
Clear
Clear
 Wind from calm
Wind: Calm
Temperature: 45°F , 7°C
Dew Point: 30°F , -1°C
Humidity: 57%
Barometer: 29.99 inHg , 1015.6 hPa
Clouds: Clear
Visibility: 10 miles , 16 km
2024/04/19 10:56 KNFL 191056Z AUTO 00000KT 10SM CLR 07/M01 A2999 RMK AO2 SLP128 T00721006
 
KHTH - Hawthorne, Nevada, USA
Distance from station: ESE 68mi, 109km
Updated: Fri, 19-Apr-2024 5:30am MDT
Clear
Clear
 Wind from S
Wind: S 5 mph , 7 km/h
Temperature: 46°F , 8°C
Wind Chill: 44°F , 7°C
Dew Point: 28°F , -2°C
Humidity: 50%
Barometer: 30.01 inHg , 1016.3 hPa
Clouds: Clear
Visibility: 10 miles , 16 km
2024/04/19 11:30 KHTH 191130Z AUTO 18004KT 10SM CLR 08/M02 A3001 RMK A01
KGOO - Grass Valley, California, USA
Distance from station: W 70mi, 112km
Updated: Fri, 19-Apr-2024 5:35am MDT
Clear
Clear
 Wind from calm
Wind: Calm
Temperature: 55°F , 13°C
Dew Point: 45°F , 7°C
Humidity: 67%
Barometer: 29.96 inHg , 1014.6 hPa
Clouds: Clear
Visibility: 10 miles , 16 km
2024/04/19 11:35 KGOO 191135Z AUTO 00000KT 10SM CLR 13/07 A2996 RMK A01
 
KAUN - Auburn Muni, California, USA
Distance from station: W 73mi, 118km
Updated: Fri, 19-Apr-2024 5:35am MDT
Clear
Clear
 Wind from E
Wind: E 8 mph , 13 km/h
Temperature: 57°F , 14°C
Dew Point: 48°F , 9°C
Humidity: 72%
Barometer: 29.93 inHg , 1013.5 hPa
Clouds: Clear
Visibility: 10 miles , 16 km
2024/04/19 11:35 KAUN 191135Z AUTO 09007KT 10SM CLR 14/09 A2993 RMK A01
KO22 - Columbia, California, USA
Distance from station: SSW 79mi, 127km
Updated: Fri, 19-Apr-2024 5:35am MDT
Clear
Clear
 Wind from calm
Wind: Calm
Temperature: 52°F , 11°C
Dew Point: 50°F , 10°C
Humidity: 94%
Barometer: 29.92 inHg , 1013.2 hPa
Clouds: Clear
Visibility: 10 miles , 16 km
2024/04/19 11:35 KO22 191135Z AUTO 00000KT 10SM CLR 11/10 A2992 RMK A01
 
KLHM - Lincoln, California, USA
Distance from station: W 88mi, 141km
Updated: Fri, 19-Apr-2024 5:35am MDT
Clear
Clear
 Wind from S
Wind: S 6 mph , 9 km/h
Temperature: 52°F , 11°C
Dew Point: 52°F , 11°C
Humidity: 100%
Barometer: 29.89 inHg , 1012.2 hPa
Clouds: Clear
Visibility: 10 miles , 16 km
2024/04/19 11:35 KLHM 191135Z AUTO 19005KT 10SM CLR 11/11 A2989 RMK AO1
KBAB - Beale Afb/Marysv, California, USA
Distance from station: W 91mi, 147km
Updated: Fri, 19-Apr-2024 4:55am MDT
Clear
Clear
 Wind from S
Wind: S 6 mph , 9 km/h
Temperature: 55°F , 13°C
Dew Point: 50°F , 10°C
Humidity: 82%
Barometer: 29.88 inHg , 1011.9 hPa
Clouds: Clear
Visibility: 8 miles , 13 km
2024/04/19 10:55 KBAB 191055Z 18005KT 8SM CLR 13/10 A2988 RMK AO2A SLP121 T01250104 $
 
KMHR - Mather Field, California, USA
Distance from station: WSW 91mi, 147km
Updated: Fri, 19-Apr-2024 5:35am MDT
Clear
Clear
 Wind from SSE
Wind: SSE 6 mph , 9 km/h
Temperature: 50°F , 10°C
Wind Chill: 48°F , 9°C
Dew Point: 48°F , 9°C
Humidity: 94%
Barometer: 29.89 inHg , 1012.2 hPa
Clouds: Clear
Visibility: 10 miles , 16 km
2024/04/19 11:35 KMHR 191135Z AUTO 16005KT 10SM CLR 10/09 A2989 RMK A01
KLOL - Lovelock, Nevada, USA
Distance from station: NE 94mi, 151km
Updated: Fri, 19-Apr-2024 4:53am MDT
Clear
Clear
 Wind from calm
Wind: Calm
Temperature: 46°F , 8°C
Dew Point: 28°F , -2°C
Humidity: 50%
Barometer: 30.01 inHg , 1016.3 hPa
Clouds: Clear
Visibility: 10 miles , 16 km
2024/04/19 10:53 KLOL 191053Z AUTO 00000KT 10SM CLR 08/M02 A3001 RMK AO2 SLP146 T00831017
 
KMCC - Mcclellan Afb, California, USA
Distance from station: WSW 94mi, 151km
Updated: Fri, 19-Apr-2024 5:35am MDT
Clear
Clear
 Wind from SSE
Wind: SSE 7 mph , 11 km/h
Temperature: 55°F , 13°C
Dew Point: 52°F , 11°C
Humidity: 88%
Barometer: 29.90 inHg , 1012.5 hPa
Clouds: Clear
Visibility: 9 miles , 14 km
2024/04/19 11:35 KMCC 191135Z AUTO 16006KT 9SM CLR 13/11 A2990 RMK AO2
KMYV - Marysville, California, USA
Distance from station: W 99mi, 159km
Updated: Fri, 19-Apr-2024 4:53am MDT
Clear
Clear
 Wind from S
Wind: S 3 mph , 6 km/h
Temperature: 55°F , 13°C
Dew Point: 50°F , 10°C
Humidity: 82%
Barometer: 29.89 inHg , 1012.2 hPa
Clouds: Clear
Visibility: 10 miles , 16 km
2024/04/19 10:53 KMYV 191053Z AUTO 19003KT 10SM CLR 13/10 A2989 RMK AO2 SLP126 T01330100 $
 
KSVE - Susanville Muni, California, USA
Distance from station: NNW 102mi, 164km
Updated: Fri, 19-Apr-2024 5:35am MDT
Clear
Clear
 Wind from calm
Wind: Calm
Temperature: 43°F , 6°C
Dew Point: 37°F , 3°C
Humidity: 81%
Barometer: 30.01 inHg , 1016.3 hPa
Clouds: Clear
Visibility: 10 miles , 16 km
2024/04/19 11:35 KSVE 191135Z AUTO 00000KT 10SM CLR 06/03 A3001 RMK AO2
KSAC - Sacramento, California, USA
Distance from station: WSW 103mi, 165km
Updated: Fri, 19-Apr-2024 4:53am MDT
Clear
Clear
 Wind from S
Wind: S 5 mph , 7 km/h
Temperature: 54°F , 12°C
Dew Point: 50°F , 10°C
Humidity: 88%
Barometer: 29.90 inHg , 1012.5 hPa
Clouds: Clear
Visibility: 10 miles , 16 km
2024/04/19 10:53 KSAC 191053Z AUTO 18004KT 10SM CLR 12/10 A2990 RMK AO2 SLP124 T01220100
 
KSMF - Sacramento/Metro, California, USA
Distance from station: WSW 104mi, 167km
Updated: Fri, 19-Apr-2024 4:53am MDT
Mostly cloudy
Mostly cloudy
 Wind from SSE
Wind: SSE 7 mph , 11 km/h
Temperature: 57°F , 14°C
Dew Point: 52°F , 11°C
Humidity: 82%
Barometer: 29.89 inHg , 1012.2 hPa
Clouds: Mostly cloudy
Visibility: 10 miles , 16 km
Cloud details: Partly cloudy 21000 ft
Mostly cloudy 25000 ft
2024/04/19 10:53 KSMF 191053Z 16006KT 10SM SCT210 BKN250 14/11 A2989 RMK AO2 SLP120 T01390106
KOVE - Oroville, California, USA
Distance from station: WNW 106mi, 171km
Updated: Fri, 19-Apr-2024 4:53am MDT
Clear
Clear
 Wind from calm
Wind: Calm
Temperature: 63°F , 17°C
Dew Point: 52°F , 11°C
Humidity: 68%
Barometer: 29.89 inHg , 1012.2 hPa
Clouds: Clear
Visibility: 10 miles , 16 km
2024/04/19 10:53 KOVE 191053Z AUTO 00000KT 10SM CLR 17/11 A2989 RMK AO2 SLP124 T01670111
 
KMMH - Mammoth/June Lak, California, USA
Distance from station: SSE 110mi, 177km
Updated: Fri, 19-Apr-2024 5:35am MDT
Clear
Clear
 Wind from calm
Wind: Calm
Temperature: 28°F , -2°C
Dew Point: 23°F , -5°C
Humidity: 80%
Barometer: 30.09 inHg , 1019 hPa
Clouds: Clear
Visibility: 10 miles , 16 km
2024/04/19 11:35 KMMH 191135Z AUTO 00000KT 10SM CLR M02/M05 A3009 RMK AO2 T10241054
KSCK - Stockton, California, USA
Distance from station: SW 114mi, 183km
Updated: Fri, 19-Apr-2024 4:55am MDT
Clear
Clear
 Wind from calm
Wind: Calm
Temperature: 55°F , 13°C
Dew Point: 45°F , 7°C
Humidity: 67%
Barometer: 29.89 inHg , 1012.2 hPa
Clouds: Clear
Visibility: 10 miles , 16 km
2024/04/19 10:55 KSCK 191055Z AUTO 00000KT 10SM CLR 13/07 A2989 RMK AO2 SLP122 T01280072
 
KEDU - Davis, California, USA
Distance from station: WSW 116mi, 187km
Updated: Fri, 19-Apr-2024 5:40am MDT
Clear
Clear
 Wind from calm
Wind: Calm
Temperature: 54°F , 12°C
Dew Point: 50°F , 10°C
Humidity: 88%
Barometer: 29.90 inHg , 1012.5 hPa
Clouds: Clear
Visibility: 10 miles , 16 km
2024/04/19 11:40 KEDU 191140Z AUTO 00000KT 10SM CLR 12/10 A2990 RMK AO1
KMOD - Modesto, California, USA
Distance from station: SW 119mi, 191km
Updated: Fri, 19-Apr-2024 4:53am MDT
Clear
Clear
 Wind from calm
Wind: Calm
Temperature: 57°F , 14°C
Dew Point: 46°F , 8°C
Humidity: 67%
Barometer: 29.89 inHg , 1012.2 hPa
Clouds: Clear
Visibility: 10 miles , 16 km
2024/04/19 10:53 KMOD 191053Z AUTO 00000KT 10SM CLR 14/08 A2989 RMK AO2 SLP120 T01440083
 
KMER - Merced/Castle Af, California, USA
Distance from station: SSW 123mi, 198km
Updated: Thu, 18-Apr-2024 9:53pm MDT
NOT Current
Clear
Clear
 Wind from NNW
Wind: NNW 5 mph , 7 km/h
Temperature: 70°F , 21°C
Dew Point: 57°F , 14°C
Humidity: 64%
Barometer: 29.88 inHg , 1011.9 hPa
Clouds: Clear
Visibility: 10 miles , 16 km
2024/04/19 03:53 KMER 190353Z 33004KT 10SM CLR 21/14 A2988
KCIC - Chico Municipal, California, USA
Distance from station: WNW 124mi, 199km
Updated: Fri, 19-Apr-2024 5:35am MDT
Clear
Clear
 Wind from NNW
Wind: NNW 7 mph , 11 km/h
Temperature: 55°F , 13°C
Dew Point: 52°F , 11°C
Humidity: 88%
Barometer: 29.91 inHg , 1012.9 hPa
Clouds: Clear
Visibility: 10 miles , 16 km
2024/04/19 11:35 KCIC 191135Z AUTO 33006KT 10SM CLR 13/11 A2991 RMK AO1
 
KMCE - Merced, California, USA
Distance from station: SSW 128mi, 207km
Updated: Fri, 19-Apr-2024 4:53am MDT
Clear
Clear
 Wind from W
Wind: W 3 mph , 6 km/h
Temperature: 57°F , 14°C
Dew Point: 50°F , 10°C
Humidity: 77%
Barometer: 29.88 inHg , 1011.9 hPa
Clouds: Clear
Visibility: 10 miles , 16 km
2024/04/19 10:53 KMCE 191053Z AUTO 28003KT 10SM CLR 14/10 A2988 RMK AO2 SLP118 T01440100
KVCB - Vacaville, California, USA
Distance from station: WSW 128mi, 207km
Updated: Fri, 19-Apr-2024 4:53am MDT
Clear
Clear
 Wind from SW
Wind: SW 6 mph , 9 km/h
Temperature: 55°F , 13°C
Dew Point: 50°F , 10°C
Humidity: 82%
Barometer: 29.90 inHg , 1012.5 hPa
Clouds: Clear
Visibility: 10 miles , 16 km
2024/04/19 10:53 KVCB 191053Z AUTO 23005KT 10SM CLR 13/10 A2990 RMK AO2 SLP123 T01280100
 
KSUU - Travis Afb/Fairf, California, USA
Distance from station: WSW 130mi, 209km
Updated: Fri, 19-Apr-2024 4:55am MDT
Clear
Clear
 Wind from SW
Wind: SW 20 mph , 31 km/h, Gust: 24 mph , 39 km/h
Temperature: 54°F , 12°C
Dew Point: 50°F , 10°C
Humidity: 88%
Barometer: 29.88 inHg , 1011.9 hPa
Clouds: Clear
Visibility: 10 miles , 16 km
2024/04/19 10:55 KSUU 191055Z AUTO 23017G21KT 10SM CLR 12/10 A2988 RMK AO2 SLP124 T01160095 $
KBIH - Bishop, California, USA
Distance from station: SE 137mi, 221km
Updated: Fri, 19-Apr-2024 4:56am MDT
Clear
Clear
 Wind from NNW
Wind: NNW 7 mph , 11 km/h
Temperature: 45°F , 7°C
Wind Chill: 41°F , 5°C
Dew Point: 32°F , 0°C
Humidity: 61%
Barometer: 29.95 inHg , 1014.2 hPa
Clouds: Clear
Visibility: 10 miles , 16 km
2024/04/19 10:56 KBIH 191056Z AUTO 33006KT 10SM CLR 07/00 A2995 RMK AO2 SLP106 T00670000
 
KMAE - Madera, California, USA
Distance from station: S 144mi, 231km
Updated: Fri, 19-Apr-2024 4:53am MDT
Clear
Clear
 Wind from WNW
Wind: WNW 3 mph , 6 km/h
Temperature: 55°F , 13°C
Dew Point: 50°F , 10°C
Humidity: 82%
Barometer: 29.89 inHg , 1012.2 hPa
Clouds: Clear
Visibility: 10 miles , 16 km
2024/04/19 10:53 KMAE 191053Z AUTO 30003KT 10SM CLR 13/10 A2989 RMK AO2 SLP118 T01330100
KCCR - Concord, California, USA
Distance from station: WSW 145mi, 233km
Updated: Fri, 19-Apr-2024 4:53am MDT
Clear
Clear
 Wind from NW
Wind: NW 5 mph , 7 km/h
Temperature: 52°F , 11°C
Dew Point: 46°F , 8°C
Humidity: 82%
Barometer: 29.93 inHg , 1013.5 hPa
Clouds: Clear
Visibility: 10 miles , 16 km
2024/04/19 10:53 KCCR 191053Z AUTO 31004KT 10SM CLR 11/08 A2993 RMK AO2 SLP121 T01110078
 
KLVK - Livermore, California, USA
Distance from station: SW 146mi, 236km
Updated: Fri, 19-Apr-2024 4:53am MDT
Clear
Clear
 Wind from WNW
Wind: WNW 3 mph , 6 km/h
Temperature: 52°F , 11°C
Dew Point: 45°F , 7°C
Humidity: 77%
Barometer: 29.93 inHg , 1013.5 hPa
Clouds: Clear
Visibility: 9 miles , 14 km
2024/04/19 10:53 KLVK 191053Z AUTO 30003KT 9SM CLR 11/07 A2993 RMK AO2 SLP133 T01060072
KAPC - Napa, California, USA
Distance from station: WSW 150mi, 241km
Updated: Fri, 19-Apr-2024 5:16am MDT
Mostly cloudy
Mostly cloudy
 Wind from W
Wind: W 7 mph , 11 km/h
Temperature: 48°F , 9°C
Wind Chill: 45°F , 7°C
Dew Point: 46°F , 8°C
Humidity: 94%
Barometer: 29.94 inHg , 1013.9 hPa
Clouds: Mostly cloudy
Visibility: 8 miles , 13 km
Cloud details: Mostly cloudy 800 ft
Mostly cloudy 1200 ft
2024/04/19 11:16 KAPC 191116Z AUTO 27006KT 8SM BKN008 BKN012 09/08 A2994 RMK AO2 CIG 005V010 T00940083
 
KRBL - Red Bluff, California, USA
Distance from station: WNW 155mi, 249km
Updated: Fri, 19-Apr-2024 4:54am MDT
Clear
Clear
 Wind from NW
Wind: NW 5 mph , 7 km/h
Temperature: 54°F , 12°C
Dew Point: 48°F , 9°C
Humidity: 82%
Barometer: 29.90 inHg , 1012.5 hPa
Clouds: Clear
Visibility: 10 miles , 16 km
2024/04/19 10:54 KRBL 191054Z AUTO 32004KT 10SM CLR 12/09 A2990 RMK AO2 SLP123 T01220089
KFAT - Fresno, California, USA
Distance from station: S 156mi, 251km
Updated: Fri, 19-Apr-2024 4:53am MDT
Mostly cloudy
Mostly cloudy
 Wind from NW
Wind: NW 8 mph , 13 km/h
Temperature: 63°F , 17°C
Dew Point: 52°F , 11°C
Humidity: 68%
Barometer: 29.88 inHg , 1011.9 hPa
Clouds: Mostly cloudy
Visibility: 10 miles , 16 km
Cloud details: Partly cloudy 7000 ft
Mostly cloudy 13000 ft
Mostly cloudy 20000 ft
2024/04/19 10:53 KFAT 191053Z 32007KT 10SM SCT070 BKN130 BKN200 17/11 A2988 RMK AO2 SLP114 T01670106
 
KTPH - Tonopah, Nevada, USA
Distance from station: ESE 158mi, 254km
Updated: Fri, 19-Apr-2024 4:56am MDT
Clear
Clear
 Wind from NNW
Wind: NNW 8 mph , 13 km/h
Temperature: 45°F , 7°C
Wind Chill: 41°F , 5°C
Dew Point: 27°F , -3°C
Humidity: 49%
Barometer: 30.01 inHg , 1016.3 hPa
Clouds: Clear
Visibility: 10 miles , 16 km
2024/04/19 10:56 KTPH 191056Z AUTO 34007KT 10SM CLR 07/M03 A3001 RMK AO2 SLP116 T00671033
KFCH - Fresno Chandler, California, USA
Distance from station: S 161mi, 258km
Updated: Fri, 19-Apr-2024 5:35am MDT
Overcast
Overcast
 Wind from WNW
Wind: WNW 6 mph , 9 km/h
Temperature: 59°F , 15°C
Dew Point: 50°F , 10°C
Humidity: 72%
Barometer: 29.89 inHg , 1012.2 hPa
Clouds: Overcast
Visibility: 10 miles , 16 km
Cloud details: Partly cloudy 4300 ft
Mostly cloudy 5000 ft
Overcast 6500 ft
2024/04/19 11:35 KFCH 191135Z AUTO 30005KT 10SM SCT043 BKN050 OVC065 15/10 A2989 RMK A01
 
KHWD - Hayward, California, USA
Distance from station: SW 161mi, 259km
Updated: Fri, 19-Apr-2024 4:54am MDT
Overcast
Overcast
 Wind from N
Wind: N 5 mph , 7 km/h
Temperature: 54°F , 12°C
Dew Point: 48°F , 9°C
Humidity: 82%
Barometer: 29.95 inHg , 1014.2 hPa
Clouds: Overcast
Visibility: 9 miles , 14 km
Cloud details: Overcast 1100 ft
2024/04/19 10:54 KHWD 191054Z AUTO 35004KT 9SM OVC011 12/09 A2995 RMK AO2 SLP150 T01220094 $
KOAK - Oakland, California, USA
Distance from station: SW 164mi, 264km
Updated: Fri, 19-Apr-2024 4:53am MDT
Partly cloudy
Partly cloudy
 Wind from N
Wind: N 5 mph , 7 km/h
Temperature: 52°F , 11°C
Dew Point: 52°F , 11°C
Humidity: 100%
Barometer: 29.97 inHg , 1014.9 hPa
Clouds: Partly cloudy
Visibility: 10 miles , 16 km
Cloud details: Few Clouds 800 ft
Partly cloudy 1200 ft
Partly cloudy 15000 ft
2024/04/19 10:53 KOAK 191053Z 01004KT 10SM FEW008 SCT012 SCT150 11/11 A2997 RMK AO2 SLP148 T01110106
 
KWMC - Winnemucca, Nevada, USA
Distance from station: NE 164mi, 264km
Updated: Thu, 18-Apr-2024 10:56am MDT
NOT Current
Clear
Clear
 Wind from NE
Wind: NE 13 mph , 20 km/h
Temperature: 48°F , 9°C
Wind Chill: 43°F , 6°C
Dew Point: 18°F , -8°C
Humidity: 29%
Barometer: 30.17 inHg , 1021.7 hPa
Clouds: Clear
Visibility: 10 miles , 16 km
2024/04/18 16:56 KWMC 181656Z AUTO 05011KT 10SM CLR 09/M08 A3017 RMK AO2 SLP212 T00891083
KDVO - Novato/Gnoss Fld, California, USA
Distance from station: WSW 165mi, 265km
Updated: Fri, 19-Apr-2024 5:35am MDT
Few Clouds
Few Clouds
 Wind from calm
Wind: Calm
Temperature: 48°F , 9°C
Dew Point: 48°F , 9°C
Humidity: 100%
Barometer: 29.95 inHg , 1014.2 hPa
Clouds: Few Clouds
Visibility: 10 miles , 16 km
Cloud details: Few Clouds 900 ft
2024/04/19 11:35 KDVO 191135Z AUTO 00000KT 10SM FEW009 09/09 A2995 RMK AO2
 
KO69 - Petaluma, California, USA
Distance from station: WSW 165mi, 265km
Updated: Fri, 19-Apr-2024 5:35am MDT
Overcast
Overcast
 Wind from calm
Wind: Calm
Temperature: 48°F , 9°C
Dew Point: 48°F , 9°C
Humidity: 100%
Barometer: 29.96 inHg , 1014.6 hPa
Clouds: Overcast
Visibility: 10 miles , 16 km
Cloud details: Overcast 700 ft
2024/04/19 11:35 KO69 191135Z AUTO 00000KT 10SM OVC007 09/09 A2996 RMK A01
KRHV - San Jose/Reid, California, USA
Distance from station: SW 165mi, 265km
Updated: Thu, 18-Apr-2024 10:55pm MDT
NOT Current
Partly cloudy
Partly cloudy
 Wind from SW
Wind: SW 7 mph , 11 km/h
Temperature: 57°F , 14°C
Dew Point: 46°F , 8°C
Humidity: 67%
Barometer: 29.96 inHg , 1014.6 hPa
Clouds: Partly cloudy
Visibility: 10 miles , 16 km
Cloud details: Partly cloudy 9000 ft
2024/04/19 04:55 KRHV 190455Z 22006KT 10SM SCT090 14/08 A2996
 
KSJC - San Jose, California, USA
Distance from station: SW 166mi, 267km
Updated: Fri, 19-Apr-2024 4:53am MDT
Clear
Clear
 Wind from SSE
Wind: SSE 7 mph , 11 km/h
Temperature: 52°F , 11°C
Dew Point: 46°F , 8°C
Humidity: 82%
Barometer: 29.95 inHg , 1014.2 hPa
Clouds: Clear
Visibility: 10 miles , 16 km
2024/04/19 10:53 KSJC 191053Z AUTO 15006KT 10SM CLR 11/08 A2995 RMK AO2 SLP142 T01110078
KE16 - San Martin, California, USA
Distance from station: SW 169mi, 273km
Updated: Fri, 19-Apr-2024 5:35am MDT
Mist, Overcast
Mist, Overcast
 Wind from calm
Wind: Calm
Temperature: 48°F , 9°C
Dew Point: 46°F , 8°C
Humidity: 94%
Barometer: 29.99 inHg , 1015.6 hPa
Summary: Mist
Clouds: Overcast
Visibility: 5 miles , 8 km
Cloud details: Overcast 900 ft
2024/04/19 11:35 KE16 191135Z AUTO 00000KT 5SM BR OVC009 09/08 A2999 RMK AO2
 
KPAO - Palo Alto, California, USA
Distance from station: SW 169mi, 273km
Updated: Thu, 18-Apr-2024 9:47pm MDT
NOT Current
Clear
Clear
 Wind from NNW
Wind: NNW 12 mph , 19 km/h
Temperature: 55°F , 13°C
Dew Point: 48°F , 9°C
Humidity: 77%
Barometer: 29.93 inHg , 1013.5 hPa
Clouds: Clear
Visibility: 10 miles , 16 km
2024/04/19 03:47 KPAO 190347Z 34010KT 10SM SKC 13/09 A2993 RMK LAST
KNUQ - Moffett Nas/Mtn, California, USA
Distance from station: SW 170mi, 273km
Updated: Fri, 19-Apr-2024 5:35am MDT
Overcast
Overcast
 Wind from calm
Wind: Calm
Temperature: 52°F , 11°C
Dew Point: 46°F , 8°C
Humidity: 82%
Barometer: 29.95 inHg , 1014.2 hPa
Clouds: Overcast
Visibility: 8 miles , 13 km
Cloud details: Overcast 1400 ft
2024/04/19 11:35 KNUQ 191135Z AUTO 00000KT 8SM OVC014 11/08 A2995 RMK AO2
 
KRDD - Redding, California, USA
Distance from station: NW 171mi, 275km
Updated: Fri, 19-Apr-2024 4:53am MDT
Clear
Clear
 Wind from NNW
Wind: NNW 5 mph , 7 km/h
Temperature: 57°F , 14°C
Dew Point: 46°F , 8°C
Humidity: 67%
Barometer: 29.90 inHg , 1012.5 hPa
Clouds: Clear
Visibility: 10 miles , 16 km
2024/04/19 10:53 KRDD 191053Z AUTO 34004KT 10SM CLR 14/08 A2990 RMK AO2 SLP120 T01390078
KSTS - Santa Rosa, California, USA
Distance from station: WSW 171mi, 275km
Updated: Fri, 19-Apr-2024 4:53am MDT
Mostly cloudy
Mostly cloudy
 Wind from SE
Wind: SE 5 mph , 7 km/h
Temperature: 50°F , 10°C
Wind Chill: 48°F , 9°C
Dew Point: 48°F , 9°C
Humidity: 94%
Barometer: 29.94 inHg , 1013.9 hPa
Clouds: Mostly cloudy
Visibility: 8 miles , 13 km
Cloud details: Mostly cloudy 800 ft
2024/04/19 10:53 KSTS 191053Z AUTO 13004KT 8SM BKN008 10/09 A2994 RMK AO2 SLP134 T01000094
 
KSQL - San Carlos Airpo, California, USA
Distance from station: SW 173mi, 278km
Updated: Fri, 19-Apr-2024 5:35am MDT
Mist, Overcast
Mist, Overcast
 Wind from SE
Wind: SE 3 mph , 6 km/h
Temperature: 55°F , 13°C
Dew Point: 50°F , 10°C
Humidity: 82%
Barometer: 29.96 inHg , 1014.6 hPa
Summary: Mist
Clouds: Overcast
Visibility: 6 miles , 10 km
Cloud details: Overcast 1100 ft
2024/04/19 11:35 KSQL 191135Z AUTO 14003KT 6SM BR OVC011 13/10 A2996 RMK AO2
KCVH - Hollister Muni, California, USA
Distance from station: SSW 174mi, 280km
Updated: Fri, 19-Apr-2024 5:35am MDT
Overcast
Overcast
 Wind from calm
Wind: Calm
Temperature: 50°F , 10°C
Dew Point: 46°F , 8°C
Humidity: 88%
Barometer: 29.98 inHg , 1015.2 hPa
Clouds: Overcast
Visibility: 10 miles , 16 km
Cloud details: Overcast 1000 ft
2024/04/19 11:35 KCVH 191135Z AUTO 00000KT 10SM OVC010 10/08 A2998 RMK A01
 
KSFO - San Francisco, California, USA
Distance from station: SW 174mi, 280km
Updated: Fri, 19-Apr-2024 5:22am MDT
Mostly cloudy
Mostly cloudy
 Wind from W
Wind: W 6 mph , 9 km/h
Temperature: 52°F , 11°C
Dew Point: 46°F , 8°C
Humidity: 82%
Barometer: 29.95 inHg , 1014.2 hPa
Clouds: Mostly cloudy
Visibility: 10 miles , 16 km
Cloud details: Mostly cloudy 1100 ft
Mostly cloudy 12000 ft
2024/04/19 11:22 KSFO 191122Z 28005KT 10SM BKN011 BKN120 11/08 A2995 RMK AO2 T01110083
KAAT - Alturas, California, USA
Distance from station: NNW 175mi, 281km
Updated: Fri, 19-Apr-2024 4:55am MDT
Clear
Clear
 Wind from calm
Wind: Calm
Temperature: 32°F , 0°C
Dew Point: 27°F , -3°C
Humidity: 80%
Barometer: 30.03 inHg , 1016.9 hPa
Clouds: Clear
Visibility: 10 miles , 16 km
2024/04/19 10:55 KAAT 191055Z AUTO 00000KT 10SM CLR 00/M03 A3003 RMK AO2 SLP158 T00001028 $
 
KBAM - Battle Mtn (vor), Nevada, USA
Distance from station: NE 182mi, 294km
Updated: Fri, 19-Apr-2024 5:35am MDT
Clear
Clear
 Wind from NNE
Wind: NNE 3 mph , 6 km/h
Temperature: 36°F , 2°C
Dew Point: 30°F , -1°C
Humidity: 81%
Barometer: 30.06 inHg , 1017.9 hPa
Clouds: Clear
Visibility: 10 miles , 16 km
2024/04/19 11:35 KBAM 191135Z AUTO 02003KT 10SM CLR 02/M01 A3006 RMK AO1
KHAF - Half Moon Bay, California, USA
Distance from station: SW 184mi, 296km
Updated: Fri, 19-Apr-2024 5:35am MDT
Mist, Overcast
Mist, Overcast
 Wind from SSE
Wind: SSE 5 mph , 7 km/h
Temperature: 50°F , 10°C
Wind Chill: 48°F , 9°C
Dew Point: 50°F , 10°C
Humidity: 100%
Barometer: 29.97 inHg , 1014.9 hPa
Summary: Mist
Clouds: Overcast
Visibility: 6 miles , 10 km
Cloud details: Overcast 1000 ft
2024/04/19 11:35 KHAF 191135Z AUTO 15004KT 6SM BR OVC010 10/10 A2997 RMK AO2
 
KWVI - Watsonville, California, USA
Distance from station: SW 184mi, 296km
Updated: Fri, 19-Apr-2024 5:29am MDT
Overcast
Overcast
 Wind from calm
Wind: Calm
Temperature: 52°F , 11°C
Dew Point: 46°F , 8°C
Humidity: 82%
Barometer: 29.97 inHg , 1014.9 hPa
Clouds: Overcast
Visibility: 10 miles , 16 km
Cloud details: Overcast 1000 ft
2024/04/19 11:29 KWVI 191129Z AUTO 00000KT 10SM OVC010 11/08 A2997 RMK AO2 T01060083
KUKI - Ukiah, California, USA
Distance from station: W 187mi, 300km
Updated: Fri, 19-Apr-2024 4:56am MDT
Clear
Clear
 Wind from calm
Wind: Calm
Temperature: 52°F , 11°C
Dew Point: 46°F , 8°C
Humidity: 82%
Barometer: 29.93 inHg , 1013.5 hPa
Clouds: Clear
Visibility: 10 miles , 16 km
2024/04/19 10:56 KUKI 191056Z AUTO 00000KT 10SM CLR 11/08 A2993 RMK AO2 SLP127 T01110083
 
KHJO - Hanford, California, USA
Distance from station: S 188mi, 303km
Updated: Fri, 19-Apr-2024 4:53am MDT
Clear
Clear
 Wind from NW
Wind: NW 8 mph , 13 km/h
Temperature: 64°F , 18°C
Dew Point: 46°F , 8°C
Humidity: 52%
Barometer: 29.88 inHg , 1011.9 hPa
Clouds: Clear
Visibility: 10 miles , 16 km
2024/04/19 10:53 KHJO 191053Z AUTO 31007KT 10SM CLR 18/08 A2988 RMK AO2 SLP117 T01830083
KNLC - Lemoore Nas/Reev, California, USA
Distance from station: S 188mi, 303km
Updated: Fri, 19-Apr-2024 4:56am MDT
Clear
Clear
 Wind from NNW
Wind: NNW 9 mph , 15 km/h
Temperature: 57°F , 14°C
Dew Point: 52°F , 11°C
Humidity: 82%
Barometer: 29.88 inHg , 1011.9 hPa
Clouds: Clear
Visibility: 10 miles , 16 km
2024/04/19 10:56 KNLC 191056Z AUTO 33008KT 10SM CLR 14/11 A2988 RMK AO2 SLP115 T01390106
 
KVIS - Visalia Muni, California, USA
Distance from station: S 189mi, 304km
Updated: Fri, 19-Apr-2024 4:56am MDT
Clear
Clear
 Wind from NW
Wind: NW 5 mph , 7 km/h
Temperature: 61°F , 16°C
Dew Point: 55°F , 13°C
Humidity: 83%
Barometer: 29.88 inHg , 1011.9 hPa
Clouds: Clear
Visibility: 10 miles , 16 km
2024/04/19 10:56 KVIS 191056Z AUTO 32004KT 10SM CLR 16/13 A2988 RMK AO2 SLP124 T01610133
KSNS - Salinas, California, USA
Distance from station: SSW 193mi, 311km
Updated: Fri, 19-Apr-2024 4:53am MDT
Haze, Overcast
Haze, Overcast
 Wind from WNW
Wind: WNW 6 mph , 9 km/h
Temperature: 52°F , 11°C
Dew Point: 46°F , 8°C
Humidity: 82%
Barometer: 29.97 inHg , 1014.9 hPa
Summary: Haze
Clouds: Overcast
Visibility: 9 miles , 14 km
Cloud details: Overcast 1200 ft
2024/04/19 10:53 KSNS 191053Z AUTO 30005KT 9SM HZ OVC012 11/08 A2997 RMK AO2 SLP156 T01110083
 
K05U - Eureka, Nevada, USA
Distance from station: ENE 203mi, 326km
Updated: Fri, 19-Apr-2024 5:30am MDT

 Wind from calm
Wind: Calm
Barometer: 30.08 inHg , 1018.6 hPa
Visibility: 10 miles , 16 km
2024/04/19 11:30 K05U 191130Z AUTO 00000KT 10SM A3008 RMK A01
KP68 - Eureka, Nevada, USA
Distance from station: ENE 203mi, 326km
Updated: Fri, 19-Apr-2024 4:53am MDT

 Wind from S
Wind: S 3 mph , 6 km/h
Temperature: 32°F , 0°C
Dew Point: 21°F , -6°C
Humidity: 64%
Barometer: 30.06 inHg , 1017.9 hPa
2024/04/19 10:53 KP68 191053Z AUTO 19003KT 00/M06 A3006 RMK AO1 SLP142 T00001056
 
KMRY - Monterey, California, USA
Distance from station: SW 206mi, 331km
Updated: Fri, 19-Apr-2024 4:54am MDT
Overcast
Overcast
 Wind from calm
Wind: Calm
Temperature: 52°F , 11°C
Dew Point: 48°F , 9°C
Humidity: 88%
Barometer: 29.97 inHg , 1014.9 hPa
Clouds: Overcast
Visibility: 10 miles , 16 km
Cloud details: Overcast 600 ft
2024/04/19 10:54 KMRY 191054Z 00000KT 10SM OVC006 11/09 A2997 RMK AO2 SLP162 T01060089
KO54 - Weaverville, California, USA
Distance from station: NW 207mi, 332km
Updated: Fri, 19-Apr-2024 5:30am MDT
Clear
Clear
 Wind from calm
Wind: Calm
Temperature: 43°F , 6°C
Dew Point: 39°F , 4°C
Humidity: 87%
Barometer: 29.98 inHg , 1015.2 hPa
Clouds: Clear
Visibility: 10 miles , 16 km
2024/04/19 11:30 KO54 191130Z AUTO 00000KT 10SM CLR 06/04 A2998 RMK A01
 
KO86 - Trinity Center, California, USA
Distance from station: NW 207mi, 333km
Updated: Fri, 19-Apr-2024 5:35am MDT
Clear
Clear
 Wind from W
Wind: W 6 mph , 9 km/h
Temperature: 43°F , 6°C
Wind Chill: 39°F , 4°C
Dew Point: 39°F , 4°C
Humidity: 87%
Barometer: 29.98 inHg , 1015.2 hPa
Clouds: Clear
Visibility: 8 miles , 13 km
2024/04/19 11:35 KO86 191135Z AUTO 27005KT 8SM CLR 06/04 A2998 RMK A01
KMHS - Mount Shasta, California, USA
Distance from station: NW 209mi, 336km
Updated: Fri, 19-Apr-2024 4:56am MDT
Clear
Clear
 Wind from calm
Wind: Calm
Temperature: 37°F , 3°C
Dew Point: 32°F , 0°C
Humidity: 81%
Barometer: 29.99 inHg , 1015.6 hPa
Clouds: Clear
Visibility: 10 miles , 16 km
2024/04/19 10:56 KMHS 191056Z AUTO 00000KT 10SM CLR 03/00 A2999 RMK AO2 SLP162 T00330000
 
KPTV - Porterville, California, USA
Distance from station: S 212mi, 341km
Updated: Fri, 19-Apr-2024 4:56am MDT
Clear
Clear
 Wind from SSE
Wind: SSE 3 mph , 6 km/h
Temperature: 57°F , 14°C
Dew Point: 55°F , 13°C
Humidity: 94%
Barometer: 29.89 inHg , 1012.2 hPa
Clouds: Clear
Visibility: 8 miles , 13 km
2024/04/19 10:56 KPTV 191056Z AUTO 15003KT 8SM CLR 14/13 A2989 RMK AO2 SLP121 T01390128
KLKV - Lakeview, Oregon, USA
Distance from station: N 219mi, 353km
Updated: Fri, 19-Apr-2024 4:53am MDT
Clear
Clear
 Wind from NNW
Wind: NNW 9 mph , 15 km/h
Barometer: 30.04 inHg , 1017.3 hPa
Clouds: Clear
Visibility: 10 miles , 16 km
2024/04/19 10:53 KLKV 191053Z AUTO 34008KT 10SM CLR A3004 RMK AO2 SLPNO FZRANO $
 
KSIY - Montague/Siskiyo, California, USA
Distance from station: NW 237mi, 382km
Updated: Fri, 19-Apr-2024 4:53am MDT
Clear
Clear
 Wind from ENE
Wind: ENE 6 mph , 9 km/h
Temperature: 43°F , 6°C
Wind Chill: 39°F , 4°C
Dew Point: 30°F , -1°C
Humidity: 61%
Barometer: 29.99 inHg , 1015.6 hPa
Clouds: Clear
Visibility: 10 miles , 16 km
2024/04/19 10:53 KSIY 191053Z AUTO 07005KT 10SM CLR 06/M01 A2999 RMK AO2 SLP160 T00611011
KPRB - Paso Robles, California, USA
Distance from station: SSW 238mi, 383km
Updated: Fri, 19-Apr-2024 5:28am MDT
Mist, Overcast
Mist, Overcast
 Wind from W
Wind: W 5 mph , 7 km/h
Temperature: 48°F , 9°C
Wind Chill: 46°F , 8°C
Dew Point: 48°F , 9°C
Humidity: 100%
Barometer: 29.95 inHg , 1014.2 hPa
Summary: Mist
Clouds: Overcast
Visibility: 3/4 mile , 1.2 km
Cloud details: Overcast 200 ft
2024/04/19 11:28 KPRB 191128Z AUTO 28004KT 3/4SM BR VV002 09/09 A2995 RMK AO2 T00940089
 
KLMT - Klamath Falls, Oregon, USA
Distance from station: NNW 239mi, 385km
Updated: Fri, 19-Apr-2024 4:53am MDT
Clear
Clear
 Wind from ENE
Wind: ENE 3 mph , 6 km/h
Temperature: 36°F , 2°C
Dew Point: 27°F , -3°C
Humidity: 70%
Barometer: 30.03 inHg , 1016.9 hPa
Clouds: Clear
Visibility: 10 miles , 16 km
2024/04/19 10:53 KLMT 191053Z AUTO 06003KT 10SM CLR 02/M03 A3003 RMK AO2 SLP156 T00221033
KEKO - Elko, Nevada, USA
Distance from station: ENE 242mi, 390km
Updated: Fri, 19-Apr-2024 4:56am MDT
Clear
Clear
 Wind from calm
Wind: Calm
Temperature: 30°F , -1°C
Dew Point: 25°F , -4°C
Humidity: 80%
Barometer: 30.07 inHg , 1018.3 hPa
Clouds: Clear
Visibility: 10 miles , 16 km
2024/04/19 10:56 KEKO 191056Z AUTO 00000KT 10SM CLR M01/M04 A3007 RMK AO2 SLP173 T10061044
 
KBFL - Bakersfield, California, USA
Distance from station: S 252mi, 405km
Updated: Fri, 19-Apr-2024 4:54am MDT
Clear
Clear
 Wind from calm
Wind: Calm
Temperature: 61°F , 16°C
Dew Point: 52°F , 11°C
Humidity: 72%
Barometer: 29.88 inHg , 1011.9 hPa
Clouds: Clear
Visibility: 10 miles , 16 km
2024/04/19 10:54 KBFL 191054Z 00000KT 10SM CLR 16/11 A2988 RMK AO2 SLP114 T01610111
KFOT - Fortuna, California, USA
Distance from station: WNW 256mi, 413km
Updated: Fri, 19-Apr-2024 5:35am MDT
Clear
Clear
 Wind from SE
Wind: SE 9 mph , 15 km/h
Temperature: 46°F , 8°C
Wind Chill: 41°F , 5°C
Dew Point: 46°F , 8°C
Humidity: 100%
Barometer: 29.94 inHg , 1013.9 hPa
Clouds: Clear
Visibility: 6 miles , 10 km
2024/04/19 11:35 KFOT 191135Z AUTO 14008KT 6SM CLR 08/08 A2994 RMK AO1
 
KNID - China Lake (naf), California, USA
Distance from station: SSE 259mi, 417km
Updated: Fri, 19-Apr-2024 4:56am MDT
Clear
Clear
 Wind from SE
Wind: SE 5 mph , 7 km/h
Temperature: 57°F , 14°C
Dew Point: 36°F , 2°C
Humidity: 44%
Barometer: 29.83 inHg , 1010.2 hPa
Clouds: Clear
Visibility: 10 miles , 16 km
2024/04/19 10:56 KNID 191056Z AUTO 13004KT 10SM CLR 14/02 A2983 RMK AO2 SLP086 T01390017 $
KDRA - Desert R/Mercury, Nevada, USA
Distance from station: SE 262mi, 421km
Updated: Fri, 19-Apr-2024 4:53am MDT
Clear
Clear
 Wind from E
Wind: E 5 mph , 7 km/h
Temperature: 52°F , 11°C
Dew Point: 32°F , 0°C
Humidity: 47%
Barometer: 29.87 inHg , 1011.5 hPa
Clouds: Clear
Visibility: 10 miles , 16 km
2024/04/19 10:53 KDRA 191053Z AUTO 09004KT 10SM CLR 11/00 A2987 RMK AO2 SLP082 T01060000
 
KELY - Ely, Nevada, USA
Distance from station: E 262mi, 421km
Updated: Fri, 19-Apr-2024 4:53am MDT
Mostly cloudy
Mostly cloudy
 Wind from SSW
Wind: SSW 5 mph , 7 km/h
Temperature: 32°F , 0°C
Wind Chill: 27°F , -3°C
Dew Point: 21°F , -6°C
Humidity: 64%
Barometer: 30.06 inHg , 1017.9 hPa
Clouds: Mostly cloudy
Visibility: 10 miles , 16 km
Cloud details: Mostly cloudy 10000 ft
2024/04/19 10:53 KELY 191053Z AUTO 21004KT 10SM BKN100 00/M06 A3006 RMK AO2 SLP135 T00001056
KREO - Rome, Oregon, USA
Distance from station: NNE 263mi, 424km
Updated: Fri, 19-Apr-2024 4:52am MDT

 Wind from E
Wind: E 7 mph , 11 km/h
Temperature: 30°F , -1°C
Wind Chill: 23°F , -5°C
Dew Point: 18°F , -8°C
Humidity: 59%
Barometer: 30.09 inHg , 1019 hPa
2024/04/19 10:52 KREO 191052Z AUTO 08006KT M01/M08 A3009 RMK AO1 SLP195 T10111078
 
KACV - Arcata/Eureka, California, USA
Distance from station: WNW 268mi, 431km
Updated: Fri, 19-Apr-2024 4:53am MDT
Clear
Clear
 Wind from E
Wind: E 3 mph , 6 km/h
Temperature: 43°F , 6°C
Dew Point: 43°F , 6°C
Humidity: 100%
Barometer: 29.93 inHg , 1013.5 hPa
Clouds: Clear
Visibility: 10 miles , 16 km
2024/04/19 10:53 KACV 191053Z AUTO 10003KT 10SM CLR 06/06 A2993 RMK AO2 SLP142 T00610061
KSBP - San Luis Obispo, California, USA
Distance from station: S 268mi, 431km
Updated: Fri, 19-Apr-2024 4:56am MDT
Overcast
Overcast
 Wind from SW
Wind: SW 3 mph , 6 km/h
Temperature: 55°F , 13°C
Dew Point: 52°F , 11°C
Humidity: 88%
Barometer: 29.96 inHg , 1014.6 hPa
Clouds: Overcast
Visibility: 8 miles , 13 km
Cloud details: Overcast 600 ft
2024/04/19 10:56 KSBP 191056Z 22003KT 8SM OVC006 13/11 A2996 RMK AO2 SLP144 T01330106
 
KINS - Indian Springs, Nevada, USA
Distance from station: SE 279mi, 449km
Updated: Fri, 19-Apr-2024 4:55am MDT
Clear
Clear
 Wind from calm
Wind: Calm
Temperature: 57°F , 14°C
Dew Point: 25°F , -4°C
Humidity: 29%
Barometer: 29.87 inHg , 1011.5 hPa
Clouds: Clear
Visibility: 10 miles , 16 km
2024/04/19 10:55 KINS 191055Z AUTO 00000KT 10SM CLR 14/M04 A2987 RMK AO2 SLP076 T01381039 $
KTSP - Tehachapi, California, USA
Distance from station: SSE 279mi, 449km
Updated: Fri, 19-Apr-2024 5:35am MDT
Clear
Clear
 Wind from NW
Wind: NW 7 mph , 11 km/h
Temperature: 50°F , 10°C
Wind Chill: 47°F , 8°C
Dew Point: 48°F , 9°C
Humidity: 94%
Barometer: 29.99 inHg , 1015.6 hPa
Clouds: Clear
Visibility: 7 miles , 11 km
2024/04/19 11:35 KTSP 191135Z AUTO 32006KT 7SM CLR 10/09 A2999 RMK AO2
 
KMFR - Medford, Oregon, USA
Distance from station: NW 284mi, 457km
Updated: Fri, 19-Apr-2024 4:53am MDT
Clear
Clear
 Wind from calm
Wind: Calm
Temperature: 45°F , 7°C
Dew Point: 36°F , 2°C
Humidity: 71%
Barometer: 29.98 inHg , 1015.2 hPa
Clouds: Clear
Visibility: 10 miles , 16 km
2024/04/19 10:53 KMFR 191053Z AUTO 00000KT 10SM CLR 07/02 A2998 RMK AO2 SLP150 T00720022
KMHV - Mojave, California, USA
Distance from station: SSE 288mi, 463km
Updated: Fri, 19-Apr-2024 5:20am MDT
Clear
Clear
 Wind from W
Wind: W 12 mph , 19 km/h
Temperature: 63°F , 17°C
Dew Point: 45°F , 7°C
Humidity: 52%
Barometer: 29.89 inHg , 1012.2 hPa
Clouds: Clear
Visibility: 10 miles , 16 km
2024/04/19 11:20 KMHV 191120Z AUTO 26010KT 10SM CLR 17/07 A2989 RMK AO2
 
KSMX - Santa Maria, California, USA
Distance from station: S 289mi, 465km
Updated: Fri, 19-Apr-2024 4:51am MDT
Mist, Overcast
Mist, Overcast
 Wind from W
Wind: W 3 mph , 6 km/h
Temperature: 54°F , 12°C
Dew Point: 54°F , 12°C
Humidity: 100%
Barometer: 29.96 inHg , 1014.6 hPa
Summary: Mist
Clouds: Overcast
Visibility: 2 1/2 miles , 4 km
Cloud details: Overcast 300 ft
2024/04/19 10:51 KSMX 191051Z AUTO 28003KT 2 1/2SM BR OVC003 12/12 A2996 RMK AO2 SLP148 T01170117 $
K9L2 - Edwards N-Aux, California, USA
Distance from station: SSE 299mi, 482km
Updated: Fri, 19-Apr-2024 4:55am MDT
Clear
Clear
 Wind from SSW
Wind: SSW 7 mph , 11 km/h
Temperature: 59°F , 15°C
Dew Point: 46°F , 8°C
Humidity: 63%
Barometer: 29.88 inHg , 1011.9 hPa
Clouds: Clear
Visibility: 10 miles , 16 km
2024/04/19 10:55 K9L2 191055Z AUTO 21006KT 10SM CLR 15/08 A2988 RMK AO2 SLP098 T01470077
CoCoRaHS (Community Collaborative Rain, Hail and Snow Network) Station Number: ID-GM-5 Live Lightning Map - USA Boise Skywarn Spotter ID: DO21 AlertID Southwestern Weather Network
Northwestern Weather Network


National Sex Offender Public Website

National Sex Offender Public Website





(Click on the Flag Counter logo below for details in new browser tab)
Flag Counter